Time;durP1;ratioP1;P1;durP2;ratioP2;P2;SDS_P1;SDS_P2;PMS_P1;PMS_P2;Temp;Humidity;BMP_temperature;BMP_pressure;BME280_temperature;BME280_humidity;BME280_pressure;Samples;Min_cycle;Max_cycle;Signal;HPM_P1;HPM_P2
2021/01/14 00:00:37;;;;;;;8.77;4.90;;;;;;;-13.10;77.36;99151.06;5125423;28;20134;-53
2021/01/14 00:03:11;;;;;;;10.10;4.95;;;;;;;-12.47;77.62;99208.94;5105998;28;20047;-51
2021/01/14 00:05:39;;;;;;;7.95;4.28;;;;;;;-12.56;77.00;99217.56;5104854;28;20354;-51
2021/01/14 00:08:05;;;;;;;6.45;4.20;;;;;;;-12.53;76.68;99234.38;5123365;28;20080;-52
2021/01/14 00:10:30;;;;;;;7.63;4.10;;;;;;;-12.58;76.84;99248.16;5125272;28;20123;-52
2021/01/14 00:12:56;;;;;;;4.05;2.47;;;;;;;-12.70;76.84;99236.66;5125239;28;20024;-53
2021/01/14 00:15:22;;;;;;;8.63;3.63;;;;;;;-12.67;76.88;99233.50;5125424;28;20035;-51
2021/01/14 00:17:47;;;;;;;10.15;5.00;;;;;;;-12.71;77.22;99219.09;5108582;28;20038;-53
2021/01/14 00:20:18;;;;;;;7.85;4.30;;;;;;;-13.11;76.75;99125.28;5104542;28;20077;-53
2021/01/14 00:22:45;;;;;;;19.08;6.85;;;;;;;-12.52;77.03;99217.00;5104414;28;20043;-52
2021/01/14 00:25:13;;;;;;;8.73;4.60;;;;;;;-12.55;76.65;99223.44;5104417;28;20032;-53
2021/01/14 00:27:38;;;;;;;14.07;4.70;;;;;;;-12.62;76.74;99208.88;5118892;28;20028;-53
2021/01/14 00:30:12;;;;;;;15.27;5.38;;;;;;;-12.57;77.23;99180.94;5124215;28;20051;-52
2021/01/14 00:32:38;;;;;;;9.20;5.15;;;;;;;-12.44;76.71;99177.59;5124381;28;20032;-53
2021/01/14 00:35:05;;;;;;;10.30;5.53;;;;;;;-12.56;76.90;99171.84;5124823;28;20027;-54
2021/01/14 00:40:28;;;;;;;9.55;4.80;;;;;;;-12.59;76.82;99172.50;5123625;28;20045;-53
2021/01/14 00:42:55;;;;;;;6.53;4.03;;;;;;;-12.55;76.47;99161.09;5124610;27;20023;-52
2021/01/14 00:45:21;;;;;;;5.70;3.83;;;;;;;-12.55;76.45;99156.13;5124413;28;20038;-52
2021/01/14 00:47:47;;;;;;;11.20;4.28;;;;;;;-12.72;76.16;99152.59;5108807;28;20027;-52
2021/01/14 00:50:12;;;;;;;9.27;5.05;;;;;;;-12.59;76.92;99144.22;5103967;28;20065;-53
2021/01/14 00:52:40;;;;;;;8.02;4.63;;;;;;;-12.63;76.50;99143.16;5119742;28;20061;-53
2021/01/14 00:55:07;;;;;;;13.27;5.40;;;;;;;-12.49;77.01;99129.06;5103842;28;20036;-54
2021/01/14 00:57:35;;;;;;;7.35;4.40;;;;;;;-12.69;76.64;99116.22;5116933;28;20069;-53
2021/01/14 01:00:01;;;;;;;14.45;5.47;;;;;;;-12.45;76.90;99125.97;5139555;27;20038;-53
2021/01/14 01:02:27;;;;;;;8.98;4.28;;;;;;;-12.55;75.91;99103.75;5123872;28;20312;-53
2021/01/14 01:04:53;;;;;;;6.95;3.55;;;;;;;-12.48;76.01;99109.97;5124094;28;20038;-52
2021/01/14 01:07:18;;;;;;;7.75;4.32;;;;;;;-12.45;75.95;99102.66;5112860;28;20028;-51
2021/01/14 01:09:44;;;;;;;10.98;4.65;;;;;;;-12.48;76.08;99099.97;5103631;28;20020;-52
2021/01/14 01:12:11;;;;;;;9.07;5.40;;;;;;;-12.44;76.31;99102.78;5103615;28;20034;-52
2021/01/14 01:14:36;;;;;;;7.43;3.95;;;;;;;-12.35;76.44;99113.28;5103604;28;20024;-51
2021/01/14 01:17:02;;;;;;;8.57;4.93;;;;;;;-12.35;76.51;99108.28;5111766;28;20031;-51
2021/01/14 01:19:28;;;;;;;8.52;4.35;;;;;;;-12.48;76.25;99120.81;5123682;28;20228;-52
2021/01/14 01:21:53;;;;;;;9.40;4.70;;;;;;;-12.65;76.35;99098.97;5123776;28;20094;-53
2021/01/14 01:24:19;;;;;;;17.65;5.15;;;;;;;-12.65;76.33;99112.31;5123854;28;20027;-53
2021/01/14 01:26:50;;;;;;;9.00;4.57;;;;;;;-12.57;76.56;99122.75;5117866;28;20081;-53
2021/01/14 01:29:16;;;;;;;10.98;5.22;;;;;;;-12.57;76.30;99103.63;5118654;28;20224;-53
2021/01/14 01:31:42;;;;;;;11.77;5.32;;;;;;;-12.54;76.71;99098.88;5123507;28;20098;-53
2021/01/14 01:34:07;;;;;;;6.13;3.88;;;;;;;-12.57;76.41;99108.63;5122888;28;20043;-52
2021/01/14 01:36:33;;;;;;;12.13;5.95;;;;;;;-12.50;76.46;99095.78;5123165;28;20046;-52
2021/01/14 01:38:59;;;;;;;15.02;6.10;;;;;;;-12.60;76.20;99095.13;5123449;28;20066;-52
2021/01/14 01:41:24;;;;;;;10.65;5.00;;;;;;;-12.71;76.89;99092.84;5123599;28;20024;-52
2021/01/14 01:43:50;;;;;;;11.05;4.80;;;;;;;-12.69;76.41;99108.75;5123466;28;20027;-51
2021/01/14 01:46:24;;;;;;;9.02;5.13;;;;;;;-13.15;76.58;99025.34;5122166;28;20027;-53
2021/01/14 01:48:50;;;;;;;4.97;3.08;;;;;;;-12.88;75.63;99109.28;5102913;28;20042;-51
2021/01/14 01:51:18;;;;;;;5.32;3.08;;;;;;;-12.77;77.08;99099.94;5102945;28;20031;-53
2021/01/14 01:53:44;;;;;;;5.82;3.42;;;;;;;-12.83;76.47;99096.22;5102856;28;20035;-51
2021/01/14 01:56:09;;;;;;;8.32;5.03;;;;;;;-12.73;76.36;99111.81;5102817;28;20028;-52
2021/01/14 01:58:40;;;;;;;8.13;3.95;;;;;;;-13.37;76.33;99009.97;5102840;28;20110;-52
2021/01/14 02:01:08;;;;;;;9.98;4.57;;;;;;;-12.60;76.38;99088.50;5102912;28;20091;-52
2021/01/14 02:03:33;;;;;;;13.38;5.78;;;;;;;-12.64;76.01;99079.09;5102431;28;20043;-52
2021/01/14 02:05:59;;;;;;;12.02;4.95;;;;;;;-12.66;76.17;99068.19;5102941;28;20344;-52
2021/01/14 02:08:40;;;;;;;8.52;4.88;;;;;;;-13.08;76.16;99000.91;5121379;28;20031;-52
2021/01/14 02:11:10;;;;;;;7.57;4.05;;;;;;;-12.79;76.12;99099.00;5128611;28;20027;-53
2021/01/14 02:14:05;;;;;;;11.60;4.20;;;;;;;-12.83;75.76;99049.72;5129786;27;20232;-52
2021/01/14 02:16:32;;;;;;;8.38;3.70;;;;;;;-12.86;75.68;99064.50;5127428;28;20027;-52
2021/01/14 02:18:59;;;;;;;7.32;3.55;;;;;;;-13.42;75.80;98964.03;5109415;28;20311;-52
2021/01/14 02:21:27;;;;;;;9.15;4.72;;;;;;;-12.79;76.08;99038.34;5109331;28;20246;-51
2021/01/14 02:24:07;;;;;;;5.93;3.67;;;;;;;-13.38;76.48;98960.06;5109396;28;20083;-52
2021/01/14 02:26:37;;;;;;;8.93;5.03;;;;;;;-13.23;76.48;98975.06;5111756;28;20015;-52
2021/01/14 02:29:03;;;;;;;7.78;4.38;;;;;;;-12.99;76.84;99024.66;5129696;27;20244;-54
2021/01/14 02:31:28;;;;;;;8.30;4.95;;;;;;;-13.00;76.38;99025.44;5129789;28;20227;-53
2021/01/14 02:33:55;;;;;;;10.27;5.15;;;;;;;-13.03;76.18;99043.53;5129664;27;20028;-53
2021/01/14 02:36:25;;;;;;;10.35;3.90;;;;;;;-13.10;77.00;99054.75;5129560;27;20031;-52
2021/01/14 02:38:51;;;;;;;13.75;5.88;;;;;;;-13.14;77.27;99019.59;5129743;27;20035;-52
2021/01/14 02:41:17;;;;;;;13.30;3.95;;;;;;;-13.14;76.20;99025.44;5129558;28;20026;-52
2021/01/14 02:43:43;;;;;;;8.88;5.07;;;;;;;-13.19;77.18;99016.84;5129738;27;20035;-51
2021/01/14 02:46:09;;;;;;;9.23;3.85;;;;;;;-13.19;75.90;99019.31;5129612;27;20023;-52
2021/01/14 02:48:39;;;;;;;11.13;4.93;;;;;;;-13.37;76.74;98984.22;5110140;27;20332;-52
2021/01/14 02:51:18;;;;;;;7.65;4.60;;;;;;;-13.58;75.37;98966.31;5109099;28;20340;-52
2021/01/14 02:53:44;;;;;;;7.80;4.53;;;;;;;-13.16;76.35;99009.53;5109168;28;20375;-51
2021/01/14 02:56:11;;;;;;;8.90;4.70;;;;;;;-13.57;76.68;98930.72;5109106;28;20095;-52
2021/01/14 02:58:37;;;;;;;6.95;3.47;;;;;;;-13.37;76.83;99011.59;5128254;28;20020;-52
2021/01/14 03:01:02;;;;;;;21.65;5.63;;;;;;;-13.28;76.03;99019.63;5129540;27;20051;-52
2021/01/14 03:03:28;;;;;;;11.70;5.32;;;;;;;-13.35;76.92;99022.53;5129244;27;20076;-52
2021/01/14 03:05:53;;;;;;;7.95;4.05;;;;;;;-13.35;77.23;99009.22;5129326;27;20098;-51
2021/01/14 03:08:19;;;;;;;6.95;3.75;;;;;;;-13.42;76.34;99031.25;5112866;27;20066;-53
2021/01/14 03:10:45;;;;;;;5.20;3.92;;;;;;;-13.47;77.17;99029.25;5107904;28;20183;-53
2021/01/14 03:13:11;;;;;;;15.23;4.55;;;;;;;-13.53;76.47;99028.88;5109031;28;20042;-53
2021/01/14 03:15:36;;;;;;;16.38;4.95;;;;;;;-13.49;76.23;99015.81;5108862;28;20099;-52
2021/01/14 03:18:03;;;;;;;11.45;4.82;;;;;;;-13.30;77.04;99021.16;5122994;28;20028;-52
2021/01/14 03:20:28;;;;;;;14.13;5.82;;;;;;;-13.24;77.56;98995.75;5129300;27;20304;-52
2021/01/14 03:22:54;;;;;;;11.93;6.00;;;;;;;-13.32;76.07;98997.78;5124230;28;20027;-52
2021/01/14 03:25:19;;;;;;;11.43;5.03;;;;;;;-13.44;75.85;99007.88;5125960;28;20221;-52
2021/01/14 03:27:46;;;;;;;9.45;5.32;;;;;;;-13.42;75.87;99008.84;5125656;28;20023;-53
2021/01/14 03:30:14;;;;;;;11.82;6.15;;;;;;;-13.23;77.46;99003.31;5125829;28;20034;-53
2021/01/14 03:32:40;;;;;;;9.43;4.13;;;;;;;-13.33;76.41;99006.03;5125574;28;20304;-52
2021/01/14 03:35:08;;;;;;;12.20;5.68;;;;;;;-13.35;77.23;99002.63;5125697;28;20031;-52
2021/01/14 03:37:40;;;;;;;9.38;5.57;;;;;;;-13.86;75.36;98922.31;5125495;28;20024;-52
2021/01/14 03:40:06;;;;;;;14.60;5.25;;;;;;;-13.28;75.60;98988.88;5125698;28;20027;-52
2021/01/14 03:42:32;;;;;;;6.38;3.22;;;;;;;-13.32;75.55;99005.25;5125447;28;20206;-52
2021/01/14 03:44:58;;;;;;;12.35;4.82;;;;;;;-13.66;74.62;98990.75;5125446;28;20078;-54
2021/01/14 03:47:27;;;;;;;10.50;5.07;;;;;;;-13.53;74.95;99002.34;5124253;28;20027;-52
2021/01/14 03:49:52;;;;;;;9.27;4.47;;;;;;;-13.46;75.44;98989.50;5125459;28;20035;-53
2021/01/14 03:52:18;;;;;;;18.90;5.78;;;;;;;-13.39;74.74;98989.09;5125501;28;20035;-53
2021/01/14 03:54:45;;;;;;;5.43;3.20;;;;;;;-13.40;74.24;99017.25;5125313;28;20068;-52
2021/01/14 03:57:11;;;;;;;12.15;5.22;;;;;;;-13.55;73.68;98969.00;5119482;28;20325;-52
2021/01/14 03:59:37;;;;;;;12.70;5.28;;;;;;;-13.26;73.20;98990.69;5104882;28;20095;-53
2021/01/14 04:02:06;;;;;;;9.23;4.63;;;;;;;-13.79;73.37;98936.00;5113981;28;20205;-52
2021/01/14 04:04:42;;;;;;;9.23;5.60;;;;;;;-13.41;73.47;98979.81;5124708;28;20095;-51
2021/01/14 04:07:12;;;;;;;12.82;5.45;;;;;;;-13.20;73.27;98985.22;5124946;28;20027;-52
2021/01/14 04:09:40;;;;;;;13.25;6.10;;;;;;;-13.37;73.08;98971.78;5125208;28;20034;-52
2021/01/14 04:12:07;;;;;;;12.70;5.65;;;;;;;-13.22;73.32;98981.78;5125289;28;20323;-52
2021/01/14 04:14:33;;;;;;;6.60;3.30;;;;;;;-13.46;71.96;98956.28;5124858;28;20339;-53
2021/01/14 04:16:59;;;;;;;8.25;3.85;;;;;;;-13.45;73.16;98968.81;5124503;28;20023;-52
2021/01/14 04:19:25;;;;;;;10.25;4.93;;;;;;;-13.53;72.18;98960.00;5124537;28;20024;-52
2021/01/14 04:21:51;;;;;;;7.75;3.65;;;;;;;-13.56;73.24;98944.91;5124694;28;20049;-51
2021/01/14 04:24:17;;;;;;;7.38;4.30;;;;;;;-13.54;73.09;98980.69;5124687;28;20084;-52
2021/01/14 04:26:43;;;;;;;11.27;5.05;;;;;;;-13.62;72.47;98942.00;5123413;28;20077;-53
2021/01/14 04:29:09;;;;;;;10.02;5.75;;;;;;;-13.53;73.38;98959.16;5118700;28;20023;-52
2021/01/14 04:31:35;;;;;;;10.82;4.70;;;;;;;-13.58;72.45;98958.84;5124611;28;20035;-51
2021/01/14 04:34:02;;;;;;;9.02;3.92;;;;;;;-13.65;71.73;98949.28;5123197;28;20046;-51
2021/01/14 04:36:29;;;;;;;7.68;3.60;;;;;;;-13.66;72.70;98948.44;5124692;28;20120;-52
2021/01/14 04:38:54;;;;;;;7.97;4.28;;;;;;;-13.72;73.42;98943.94;5124560;28;20023;-52
2021/01/14 04:41:21;;;;;;;10.00;5.60;;;;;;;-13.57;72.83;98944.00;5124431;28;20108;-52
2021/01/14 04:43:48;;;;;;;9.68;4.43;;;;;;;-13.80;73.00;98947.56;5124326;28;20091;-53
2021/01/14 04:46:14;;;;;;;8.73;4.70;;;;;;;-13.68;73.06;98940.00;5124186;27;20023;-52
2021/01/14 04:48:43;;;;;;;10.27;5.03;;;;;;;-13.59;73.09;98954.66;5106003;28;20087;-53
2021/01/14 04:51:10;;;;;;;8.88;4.07;;;;;;;-13.61;72.83;98939.63;5104062;28;20091;-52
2021/01/14 04:53:37;;;;;;;7.65;4.03;;;;;;;-13.70;72.86;98933.22;5103902;28;20340;-52
2021/01/14 04:56:06;;;;;;;13.30;5.53;;;;;;;-13.66;73.44;98912.75;5103537;28;20127;-52
2021/01/14 04:58:34;;;;;;;14.63;5.53;;;;;;;-14.22;72.62;98857.09;5119406;28;20032;-52
2021/01/14 05:01:04;;;;;;;11.15;6.10;;;;;;;-14.10;71.77;98862.81;5123882;28;20034;-53
2021/01/14 05:03:33;;;;;;;8.95;4.88;;;;;;;-13.77;72.63;98955.22;5124003;28;20317;-52
2021/01/14 05:05:59;;;;;;;8.40;3.75;;;;;;;-13.73;73.06;98924.78;5123987;28;20031;-52
2021/01/14 05:08:30;;;;;;;9.73;4.35;;;;;;;-13.92;73.03;98946.78;5108102;28;20088;-54
2021/01/14 05:10:57;;;;;;;8.70;4.97;;;;;;;-13.80;72.19;98932.66;5103264;28;20272;-52
2021/01/14 05:13:23;;;;;;;5.05;3.03;;;;;;;-14.02;71.33;98919.63;5103422;28;20363;-51
2021/01/14 05:15:49;;;;;;;7.13;4.70;;;;;;;-13.75;72.44;98938.78;5102989;28;20175;-52
2021/01/14 05:18:15;;;;;;;10.30;4.80;;;;;;;-13.77;73.51;98927.00;5115930;28;20314;-52
2021/01/14 05:20:40;;;;;;;10.73;4.40;;;;;;;-13.66;71.69;98927.69;5123157;28;20069;-52
2021/01/14 05:23:07;;;;;;;12.65;5.28;;;;;;;-13.69;72.92;98917.50;5123513;28;20031;-52
2021/01/14 05:25:34;;;;;;;5.10;3.45;;;;;;;-13.77;72.27;98917.91;5123580;28;20354;-53
2021/01/14 05:28:12;;;;;;;7.38;3.22;;;;;;;-13.77;73.10;98907.94;5117517;28;20245;-51
2021/01/14 05:30:39;;;;;;;10.27;5.38;;;;;;;-13.73;73.04;98899.06;5123855;28;20032;-53
2021/01/14 05:33:12;;;;;;;6.60;3.25;;;;;;;-14.18;72.85;98826.66;5123529;28;20023;-51
2021/01/14 05:35:47;;;;;;;11.15;6.00;;;;;;;-13.48;73.16;98891.47;5123395;28;20031;-52
2021/01/14 05:38:33;;;;;;;9.20;4.28;;;;;;;-13.66;71.88;98892.84;5123232;28;20057;-52
2021/01/14 05:41:19;;;;;;;8.90;4.80;;;;;;;-13.76;73.08;98896.38;5122897;28;20123;-52
2021/01/14 05:44:02;;;;;;;10.63;5.45;;;;;;;-13.65;73.50;98889.56;5121211;28;20061;-52
2021/01/14 05:46:30;;;;;;;6.88;3.95;;;;;;;-13.82;71.55;98919.25;5117694;28;20087;-52
2021/01/14 05:49:00;;;;;;;13.07;6.20;;;;;;;-13.69;72.94;98893.50;5122289;28;20028;-52
2021/01/14 05:51:31;;;;;;;9.80;5.83;;;;;;;-14.24;72.10;98826.28;5114220;28;20028;-53
2021/01/14 05:54:05;;;;;;;8.90;4.65;;;;;;;-13.93;71.66;98835.63;5117874;28;20035;-53
2021/01/14 05:56:46;;;;;;;10.93;5.40;;;;;;;-13.69;71.66;98897.59;5121394;28;20027;-52
2021/01/14 05:59:13;;;;;;;8.55;5.25;;;;;;;-14.32;71.11;98812.50;5114213;28;20024;-53
2021/01/14 06:01:55;;;;;;;13.27;5.97;;;;;;;-13.73;72.94;98866.72;5116140;28;20049;-51
2021/01/14 06:04:23;;;;;;;11.95;5.57;;;;;;;-14.18;73.01;98793.47;5106698;28;20059;-53
2021/01/14 06:06:51;;;;;;;6.18;3.60;;;;;;;-13.85;72.57;98904.16;5109529;28;20065;-54
2021/01/14 06:09:19;;;;;;;13.38;5.97;;;;;;;-13.68;72.02;98889.38;5102519;28;20209;-52
2021/01/14 06:11:45;;;;;;;8.43;5.15;;;;;;;-13.82;71.71;98876.97;5102598;28;20094;-52
2021/01/14 06:14:31;;;;;;;5.90;4.50;;;;;;;-13.78;70.98;98851.50;5108722;28;20027;-51
2021/01/14 06:16:59;;;;;;;4.63;3.13;;;;;;;-14.15;71.02;98791.16;5106337;28;20094;-51
2021/01/14 06:19:26;;;;;;;8.80;4.47;;;;;;;-13.69;71.93;98881.06;5117904;28;20094;-52
2021/01/14 06:21:55;;;;;;;14.25;7.20;;;;;;;-13.48;70.97;98873.16;5121735;28;20031;-52
2021/01/14 06:24:50;;;;;;;23.85;5.60;;;;;;;-13.61;71.61;98877.41;5105390;28;20032;-52
2021/01/14 06:27:15;;;;;;;8.82;5.03;;;;;;;-13.62;70.12;98869.81;5099655;28;20032;-52
2021/01/14 06:29:42;;;;;;;10.25;3.83;;;;;;;-14.25;69.87;98792.22;5120398;28;20336;-53
2021/01/14 06:32:16;;;;;;;7.63;4.22;;;;;;;-13.83;71.77;98875.22;5122128;28;20031;-53
2021/01/14 06:34:48;;;;;;;11.00;4.47;;;;;;;-14.17;71.54;98801.03;5122510;28;20031;-51
2021/01/14 06:37:18;;;;;;;12.88;5.82;;;;;;;-13.93;70.52;98821.56;5122727;28;20099;-52
2021/01/14 06:39:45;;;;;;;12.82;5.03;;;;;;;-14.03;69.81;98816.81;5122853;28;20058;-52
2021/01/14 06:42:32;;;;;;;11.45;4.40;;;;;;;-13.52;70.69;98878.72;5122706;28;20066;-52
2021/01/14 06:44:59;;;;;;;5.13;3.25;;;;;;;-13.85;69.05;98875.91;5102315;28;20035;-52
2021/01/14 06:47:28;;;;;;;7.40;3.85;;;;;;;-13.87;70.93;98885.75;5102119;28;20055;-53
2021/01/14 06:50:12;;;;;;;8.98;3.95;;;;;;;-14.25;70.04;98800.56;5102595;28;20054;-52
2021/01/14 06:52:46;;;;;;;10.63;4.78;;;;;;;-13.69;69.85;98886.03;5104221;28;20071;-51
2021/01/14 06:55:14;;;;;;;8.13;4.55;;;;;;;-13.89;69.32;98788.66;5122625;28;20027;-52
2021/01/14 06:57:42;;;;;;;12.02;6.03;;;;;;;-13.47;69.51;98880.72;5124750;28;20224;-52
2021/01/14 07:00:10;;;;;;;9.60;4.72;;;;;;;-13.75;70.49;98879.06;5126285;28;20042;-52
2021/01/14 07:02:36;;;;;;;10.27;5.72;;;;;;;-13.67;69.43;98883.63;5124925;28;20305;-52
2021/01/14 07:05:02;;;;;;;15.85;5.95;;;;;;;-13.58;70.12;98891.66;5106007;28;20046;-53
2021/01/14 07:07:41;;;;;;;10.63;5.30;;;;;;;-13.41;69.78;98920.94;5105723;28;20082;-52
2021/01/14 07:10:09;;;;;;;10.38;5.38;;;;;;;-13.51;69.23;98888.75;5105879;28;20024;-52
2021/01/14 07:12:40;;;;;;;10.07;5.30;;;;;;;-13.89;68.49;98815.16;5106842;28;20024;-53
2021/01/14 07:15:09;;;;;;;11.23;6.63;;;;;;;-13.84;68.86;98798.88;5126510;28;20027;-53
2021/01/14 07:17:45;;;;;;;7.93;5.68;;;;;;;-13.89;68.05;98812.66;5126294;28;20359;-52
2021/01/14 07:20:13;;;;;;;8.85;5.35;;;;;;;-13.79;68.67;98790.06;5126141;28;20055;-53
2021/01/14 07:22:53;;;;;;;12.63;6.43;;;;;;;-13.34;68.71;98836.63;5124000;28;20068;-53
2021/01/14 07:25:20;;;;;;;9.70;5.90;;;;;;;-13.34;68.63;98873.97;5105549;28;20016;-52
2021/01/14 07:27:48;;;;;;;11.20;5.78;;;;;;;-13.65;68.91;98815.78;5108336;28;20038;-52
2021/01/14 07:30:18;;;;;;;13.40;6.57;;;;;;;-13.08;69.31;98863.03;5125920;28;20077;-53
2021/01/14 07:33:04;;;;;;;7.70;4.80;;;;;;;-13.29;68.05;98900.00;5125698;28;20024;-53
2021/01/14 07:35:38;;;;;;;8.15;3.72;;;;;;;-13.42;69.07;98869.41;5125746;28;20091;-52
2021/01/14 07:38:05;;;;;;;13.48;5.70;;;;;;;-13.36;68.87;98861.44;5125741;28;20080;-52
2021/01/14 07:40:32;;;;;;;9.52;5.50;;;;;;;-13.43;68.82;98856.88;5125628;28;20036;-52
2021/01/14 07:42:59;;;;;;;10.55;5.60;;;;;;;-13.43;69.61;98859.38;5121183;28;20034;-53
2021/01/14 07:45:24;;;;;;;12.07;5.93;;;;;;;-13.40;69.73;98862.88;5105224;28;20044;-52
2021/01/14 07:47:50;;;;;;;9.68;5.47;;;;;;;-13.16;68.61;98875.03;5104929;28;20366;-51
2021/01/14 07:50:19;;;;;;;13.50;6.78;;;;;;;-13.27;68.74;98871.06;5104908;28;20054;-52
2021/01/14 07:52:50;;;;;;;13.23;5.18;;;;;;;-13.50;69.13;98834.88;5107065;28;20032;-52
2021/01/14 07:55:45;;;;;;;9.43;5.03;;;;;;;-13.34;69.42;98876.47;5125484;28;20027;-54
2021/01/14 07:58:20;;;;;;;13.38;6.40;;;;;;;-13.04;69.19;98865.81;5116022;28;20067;-53
2021/01/14 08:01:00;;;;;;;13.82;6.13;;;;;;;-13.20;68.29;98868.16;5125069;28;20043;-52
2021/01/14 08:03:42;;;;;;;14.18;7.15;;;;;;;-13.09;68.75;98859.69;5124836;28;20043;-52
2021/01/14 08:06:27;;;;;;;10.48;5.82;;;;;;;-13.30;68.66;98866.75;5124593;28;20055;-51
2021/01/14 08:09:05;;;;;;;11.52;6.28;;;;;;;-12.97;69.25;98858.66;5124528;28;20336;-52
2021/01/14 08:11:54;;;;;;;15.50;6.38;;;;;;;-13.39;69.53;98867.09;5124914;28;20027;-52
2021/01/14 08:14:34;;;;;;;10.05;6.00;;;;;;;-13.37;69.87;98869.69;5103547;28;20233;-53
2021/01/14 08:17:01;;;;;;;16.45;6.88;;;;;;;-13.38;70.46;98858.00;5104358;28;20016;-51
2021/01/14 08:19:26;;;;;;;11.77;5.43;;;;;;;-13.29;69.40;98870.13;5104323;28;20027;-52
2021/01/14 08:21:58;;;;;;;12.32;6.07;;;;;;;-13.41;69.48;98858.69;5104477;28;20232;-52
2021/01/14 08:24:39;;;;;;;11.43;6.20;;;;;;;-13.34;68.21;98846.59;5119937;28;20095;-52
2021/01/14 08:27:07;;;;;;;11.40;5.60;;;;;;;-13.71;69.29;98802.94;5124614;28;20054;-53
2021/01/14 08:29:34;;;;;;;11.50;5.65;;;;;;;-13.42;70.20;98847.00;5124435;28;20313;-53
2021/01/14 08:32:00;;;;;;;13.18;5.55;;;;;;;-13.35;69.65;98829.94;5124544;28;20320;-51
2021/01/14 08:34:26;;;;;;;11.65;6.63;;;;;;;-13.14;70.38;98831.13;5124186;28;20051;-53
2021/01/14 08:36:56;;;;;;;11.60;5.47;;;;;;;-13.46;68.88;98762.09;5124484;28;20372;-52
2021/01/14 08:39:24;;;;;;;9.10;4.83;;;;;;;-13.44;68.37;98758.91;5123531;28;20035;-53
2021/01/14 08:41:51;;;;;;;9.60;4.65;;;;;;;-13.19;67.21;98850.81;5124144;28;20279;-52
2021/01/14 08:44:17;;;;;;;12.75;6.32;;;;;;;-12.96;69.85;98845.44;5123286;28;20138;-52
2021/01/14 08:46:48;;;;;;;13.43;6.60;;;;;;;-13.24;68.60;98764.16;5124133;28;20305;-52
2021/01/14 08:49:16;;;;;;;12.95;6.00;;;;;;;-13.30;68.60;98764.66;5123776;28;20027;-52
2021/01/14 08:51:42;;;;;;;13.75;6.30;;;;;;;-12.88;69.02;98852.59;5123884;28;20035;-53
2021/01/14 08:54:09;;;;;;;13.10;6.40;;;;;;;-12.79;68.37;98847.28;5122811;28;20031;-53
2021/01/14 08:56:36;;;;;;;11.80;6.63;;;;;;;-12.80;69.42;98847.19;5124167;28;20028;-52
2021/01/14 08:59:16;;;;;;;15.25;7.22;;;;;;;-12.94;68.41;98843.91;5124011;28;20028;-52
2021/01/14 09:01:42;;;;;;;12.68;6.55;;;;;;;-12.90;69.44;98845.78;5123827;28;20038;-53
2021/01/14 09:04:09;;;;;;;11.82;6.15;;;;;;;-12.83;68.53;98842.88;5123726;28;20252;-52
2021/01/14 09:06:39;;;;;;;14.07;7.00;;;;;;;-13.21;69.00;98759.34;5123427;28;20031;-52
2021/01/14 09:09:06;;;;;;;13.93;6.93;;;;;;;-12.44;69.66;98833.44;5123380;28;20050;-53
2021/01/14 09:11:34;;;;;;;16.30;7.10;;;;;;;-12.32;69.23;98849.06;5123768;27;20023;-53
2021/01/14 09:14:10;;;;;;;14.07;7.82;;;;;;;-13.12;68.91;98774.81;5123646;28;20030;-53
2021/01/14 09:16:38;;;;;;;15.93;6.28;;;;;;;-12.77;69.11;98830.75;5123833;28;20103;-53
2021/01/14 09:19:17;;;;;;;15.27;7.38;;;;;;;-12.80;68.87;98848.03;5122941;28;20027;-52
2021/01/14 09:21:43;;;;;;;14.77;7.18;;;;;;;-12.52;69.21;98839.63;5123665;28;20305;-53
2021/01/14 09:24:10;;;;;;;11.90;6.28;;;;;;;-12.64;69.14;98827.31;5123345;28;20019;-52
2021/01/14 09:26:38;;;;;;;11.95;6.20;;;;;;;-12.37;69.27;98840.50;5123275;28;20236;-53
2021/01/14 09:29:06;;;;;;;13.27;7.63;;;;;;;-12.52;68.64;98840.47;5123450;28;20020;-55
2021/01/14 09:31:33;;;;;;;12.75;6.90;;;;;;;-12.27;69.14;98840.97;5107242;28;20336;-53
2021/01/14 09:34:00;;;;;;;11.55;6.47;;;;;;;-12.15;69.66;98827.53;5121497;28;20053;-53
2021/01/14 09:36:25;;;;;;;13.65;6.95;;;;;;;-12.40;67.95;98822.00;5122078;28;20023;-52
2021/01/14 09:39:08;;;;;;;8.25;5.25;;;;;;;-12.62;69.15;98862.34;5122734;28;20027;-52
2021/01/14 09:41:33;;;;;;;12.60;6.53;;;;;;;-12.40;68.99;98832.81;5118856;28;20039;-52
2021/01/14 09:44:03;;;;;;;13.10;6.88;;;;;;;-12.60;69.76;98835.84;5122296;28;20031;-53
2021/01/14 09:46:31;;;;;;;13.82;7.00;;;;;;;-12.92;69.22;98757.66;5121574;28;20032;-53
2021/01/14 09:49:03;;;;;;;17.70;7.50;;;;;;;-12.80;68.56;98735.88;5122616;28;20059;-53
2021/01/14 09:51:29;;;;;;;14.20;6.38;;;;;;;-12.60;68.27;98828.38;5116599;28;20047;-52
2021/01/14 09:53:55;;;;;;;12.15;6.40;;;;;;;-12.80;67.88;98820.63;5121251;28;20297;-52
2021/01/14 09:56:30;;;;;;;13.77;6.32;;;;;;;-13.32;69.86;98738.81;5119420;28;20023;-53
2021/01/14 09:59:00;;;;;;;16.13;7.38;;;;;;;-12.80;68.59;98838.06;5122978;28;20050;-53
2021/01/14 10:01:51;;;;;;;14.98;7.05;;;;;;;-12.63;69.55;98829.03;5120202;28;20050;-54
2021/01/14 10:04:20;;;;;;;14.48;7.03;;;;;;;-12.94;68.69;98741.75;5111292;28;20036;-53
2021/01/14 10:06:55;;;;;;;15.98;6.75;;;;;;;-12.40;68.58;98832.81;5119978;28;20251;-53
2021/01/14 10:09:21;;;;;;;16.00;6.97;;;;;;;-12.20;68.60;98803.13;5116178;28;20141;-53
2021/01/14 10:11:47;;;;;;;13.15;6.72;;;;;;;-12.55;67.98;98805.41;5119668;28;20047;-53
2021/01/14 10:14:20;;;;;;;13.38;6.28;;;;;;;-12.51;67.79;98816.41;5117486;28;20305;-53
2021/01/14 10:16:47;;;;;;;15.02;6.80;;;;;;;-12.58;68.50;98809.34;5119577;28;20026;-53
2021/01/14 10:19:18;;;;;;;12.05;6.32;;;;;;;-12.48;68.66;98834.03;5119689;28;20370;-53
2021/01/14 10:21:45;;;;;;;15.35;7.75;;;;;;;-12.30;68.65;98815.88;5122376;28;20225;-53
2021/01/14 10:24:18;;;;;;;11.52;5.10;;;;;;;-12.78;68.59;98821.59;5122298;28;20238;-55
2021/01/14 10:26:44;;;;;;;16.73;8.20;;;;;;;-12.61;69.05;98806.69;5122170;28;20059;-54
2021/01/14 10:29:10;;;;;;;11.93;6.35;;;;;;;-12.80;68.79;98813.13;5122002;28;20028;-52
2021/01/14 10:31:38;;;;;;;14.45;7.78;;;;;;;-13.04;68.83;98720.44;5124769;28;20027;-53
2021/01/14 10:34:07;;;;;;;15.02;7.03;;;;;;;-12.56;68.97;98826.13;5126281;28;20195;-53
2021/01/14 10:36:49;;;;;;;13.32;6.35;;;;;;;-12.74;68.97;98788.59;5126475;28;20016;-53
2021/01/14 10:39:18;;;;;;;12.63;7.32;;;;;;;-12.64;68.07;98777.47;5122795;28;20054;-52
2021/01/14 10:41:45;;;;;;;12.38;6.32;;;;;;;-13.05;68.13;98701.31;5126009;28;20313;-51
2021/01/14 10:44:11;;;;;;;12.25;6.68;;;;;;;-12.75;69.11;98790.97;5125220;28;20023;-54
2021/01/14 10:46:40;;;;;;;13.52;7.50;;;;;;;-12.48;68.91;98801.63;5125944;28;20301;-52
2021/01/14 10:49:13;;;;;;;11.70;5.35;;;;;;;-13.38;69.41;98736.00;5126321;28;20190;-52
2021/01/14 10:51:40;;;;;;;13.43;7.50;;;;;;;-12.67;69.00;98790.63;5126351;28;20042;-52
2021/01/14 10:54:07;;;;;;;16.00;7.30;;;;;;;-12.36;69.83;98803.94;5123160;28;20228;-52
2021/01/14 10:56:51;;;;;;;17.48;7.13;;;;;;;-12.73;68.31;98749.56;5125193;28;20023;-53
2021/01/14 10:59:22;;;;;;;16.20;7.15;;;;;;;-12.38;68.86;98750.63;5126102;28;20042;-51
2021/01/14 11:02:02;;;;;;;17.45;8.02;;;;;;;-12.36;68.31;98818.88;5125713;28;20116;-52
2021/01/14 11:04:27;;;;;;;11.30;6.35;;;;;;;-12.34;68.35;98790.78;5125806;28;20051;-52
2021/01/14 11:06:53;;;;;;;20.20;7.45;;;;;;;-12.25;68.20;98802.88;5125863;28;20344;-53
2021/01/14 11:09:18;;;;;;;13.30;6.70;;;;;;;-12.38;67.49;98795.50;5125687;28;20023;-52
2021/01/14 11:11:44;;;;;;;13.75;6.47;;;;;;;-12.64;69.38;98806.53;5125854;28;20058;-54
2021/01/14 11:14:18;;;;;;;13.05;7.30;;;;;;;-12.39;69.56;98801.28;5125670;28;20027;-52
2021/01/14 11:16:43;;;;;;;13.52;7.07;;;;;;;-12.29;68.42;98778.53;5125685;28;20053;-52
2021/01/14 11:19:10;;;;;;;14.38;7.22;;;;;;;-12.13;68.30;98776.88;5125667;28;20380;-52
2021/01/14 11:21:37;;;;;;;16.23;8.43;;;;;;;-12.04;67.96;98778.22;5125514;28;20020;-53
2021/01/14 11:24:04;;;;;;;13.43;6.97;;;;;;;-11.95;69.17;98782.84;5119053;28;20035;-52
2021/01/14 11:26:30;;;;;;;17.23;7.57;;;;;;;-12.02;68.06;98799.09;5125540;27;20062;-54
2021/01/14 11:28:56;;;;;;;15.75;7.28;;;;;;;-12.16;67.91;98785.03;5125703;28;20335;-52
2021/01/14 11:31:26;;;;;;;17.60;8.38;;;;;;;-12.36;67.93;98717.47;5125283;28;20308;-52